Time;durP1;ratioP1;P1;durP2;ratioP2;P2;SDS_P1;SDS_P2;PMS_P1;PMS_P2;Temp;Humidity;BMP_temperature;BMP_pressure;BME280_temperature;BME280_humidity;BME280_pressure;Samples;Min_cycle;Max_cycle;Signal;HPM_P1;HPM_P2
2022/06/20 00:01:44;;;;;;;21.55;15.82;;;24.90;56.70;;;;;;5015043;28;20140;-73
2022/06/20 00:04:14;;;;;;;24.40;15.32;;;25.00;56.70;;;;;;5030081;28;20138;-72
2022/06/20 00:06:40;;;;;;;22.52;14.40;;;25.00;56.70;;;;;;5013929;28;20063;-72
2022/06/20 00:09:06;;;;;;;20.05;13.90;;;25.00;56.90;;;;;;5029675;28;20029;-73
2022/06/20 00:11:37;;;;;;;22.58;13.15;;;24.90;56.80;;;;;;5033566;28;20115;-72
2022/06/20 00:14:04;;;;;;;21.52;12.57;;;24.90;56.80;;;;;;5029314;28;20029;-71
2022/06/20 00:16:32;;;;;;;25.23;12.25;;;24.90;56.80;;;;;;5030838;28;20517;-72
2022/06/20 00:19:00;;;;;;;23.80;11.73;;;24.90;56.80;;;;;;5023974;28;20029;-72
2022/06/20 00:21:25;;;;;;;18.88;11.27;;;25.00;56.60;;;;;;5029202;28;20025;-72
2022/06/20 00:23:52;;;;;;;19.05;10.57;;;25.00;56.70;;;;;;5032057;28;20040;-71
2022/06/20 00:26:18;;;;;;;21.10;11.65;;;25.00;57.20;;;;;;5035159;28;20116;-72
2022/06/20 00:28:45;;;;;;;16.20;10.10;;;25.00;56.70;;;;;;5032862;28;20026;-71
2022/06/20 00:31:12;;;;;;;22.98;10.23;;;25.00;56.60;;;;;;5034042;28;20518;-71
2022/06/20 00:33:38;;;;;;;16.08;10.00;;;25.00;56.70;;;;;;5033362;28;20021;-72
2022/06/20 00:36:04;;;;;;;17.27;9.25;;;25.00;56.70;;;;;;5034985;28;20036;-72
2022/06/20 00:38:30;;;;;;;18.95;8.88;;;25.00;56.80;;;;;;5033299;28;20033;-72
2022/06/20 00:41:19;;;;;;;17.58;8.27;;;25.00;56.70;;;;;;5034268;28;20382;-72
2022/06/20 00:43:51;;;;;;;16.30;8.07;;;25.00;56.80;;;;;;5034819;28;20103;-71
2022/06/20 00:46:59;;;;;;;20.40;8.48;;;24.90;56.90;;;;;;5034125;28;20579;-71
2022/06/20 00:50:06;;;;;;;14.77;8.50;;;24.90;56.80;;;;;;5030695;28;20060;-71
2022/06/20 00:52:59;;;;;;;15.88;7.55;;;24.90;56.90;;;;;;5034247;28;20028;-71
2022/06/20 00:55:51;;;;;;;16.58;8.05;;;25.00;57.00;;;;;;5033983;28;20508;-71
2022/06/20 00:59:07;;;;;;;12.65;6.55;;;24.90;56.90;;;;;;5041742;28;20041;-71
2022/06/20 01:01:52;;;;;;;10.60;6.22;;;24.90;56.90;;;;;;5032233;28;20032;-71
2022/06/20 01:04:45;;;;;;;13.75;7.38;;;24.90;56.90;;;;;;5033190;23;20538;-73
2022/06/20 01:07:33;;;;;;;15.25;6.55;;;24.90;57.00;;;;;;4985976;28;20049;-74
2022/06/20 01:10:19;;;;;;;12.55;5.60;;;24.90;57.00;;;;;;4986688;28;20084;-74
2022/06/20 01:13:09;;;;;;;9.52;5.20;;;24.90;56.80;;;;;;4993928;28;20081;-74
2022/06/20 01:16:17;;;;;;;12.95;5.32;;;24.90;57.00;;;;;;5012783;28;20029;-74
2022/06/20 01:19:07;;;;;;;10.63;4.95;;;24.90;56.90;;;;;;5011666;28;20084;-73
2022/06/20 01:21:55;;;;;;;11.68;5.05;;;24.90;56.70;;;;;;5014667;28;20053;-73
2022/06/20 01:24:54;;;;;;;11.48;5.47;;;24.90;56.70;;;;;;5013204;28;20120;-74
2022/06/20 01:27:43;;;;;;;10.88;4.95;;;24.90;56.60;;;;;;5008815;28;20654;-74
2022/06/20 01:30:32;;;;;;;10.32;4.82;;;24.90;56.60;;;;;;5014469;28;20129;-74
2022/06/20 01:33:20;;;;;;;10.80;5.17;;;24.90;56.60;;;;;;5014243;28;20033;-74
2022/06/20 01:39:09;;;;;;;10.77;4.68;;;24.90;56.60;;;;;;5008415;28;20037;-74
2022/06/20 01:45:05;;;;;;;9.88;4.60;;;24.90;56.70;;;;;;5010396;28;20044;-74
2022/06/20 01:47:49;;;;;;;9.77;4.95;;;24.90;56.70;;;;;;5012055;28;20096;-74
2022/06/20 01:50:35;;;;;;;11.00;4.57;;;24.90;56.70;;;;;;5002942;28;20541;-74
2022/06/20 01:53:23;;;;;;;11.18;4.45;;;24.90;56.80;;;;;;5005255;28;20044;-74
2022/06/20 01:56:08;;;;;;;8.55;4.63;;;24.90;56.90;;;;;;5011553;28;20044;-74
2022/06/20 01:59:03;;;;;;;8.38;4.32;;;24.80;56.80;;;;;;5009788;28;20045;-74
2022/06/20 02:01:50;;;;;;;7.30;4.22;;;24.80;56.90;;;;;;5013172;28;20056;-74
2022/06/20 02:04:36;;;;;;;8.40;4.10;;;24.80;56.80;;;;;;5007932;28;20049;-74
2022/06/20 02:07:21;;;;;;;9.57;4.13;;;24.80;56.80;;;;;;5010978;28;20290;-73
2022/06/20 02:10:07;;;;;;;10.15;4.22;;;24.80;56.80;;;;;;5012519;28;20092;-73
2022/06/20 02:12:52;;;;;;;7.80;3.83;;;24.80;56.90;;;;;;5012343;28;20045;-74
2022/06/20 02:15:38;;;;;;;9.90;3.85;;;24.90;56.70;;;;;;5013350;28;20726;-74
2022/06/20 02:18:22;;;;;;;9.65;3.80;;;24.80;56.70;;;;;;5010631;28;20888;-73
2022/06/20 02:21:14;;;;;;;8.82;3.85;;;24.90;56.80;;;;;;5000838;28;20117;-73
2022/06/20 02:24:10;;;;;;;7.38;3.08;;;24.90;56.70;;;;;;5010723;28;20032;-74
2022/06/20 02:26:56;;;;;;;7.00;3.38;;;24.90;56.70;;;;;;5012363;28;20108;-74
2022/06/20 02:29:41;;;;;;;8.68;3.97;;;24.90;56.70;;;;;;5010174;28;20032;-73
2022/06/20 02:32:29;;;;;;;7.00;3.33;;;24.80;56.60;;;;;;5013258;28;20461;-74
2022/06/20 02:35:16;;;;;;;8.55;3.25;;;24.80;56.60;;;;;;5011759;28;20118;-74
2022/06/20 02:38:01;;;;;;;7.68;3.38;;;24.80;56.60;;;;;;5010832;28;20048;-74
2022/06/20 02:40:47;;;;;;;9.43;3.67;;;24.80;56.60;;;;;;5012758;28;20084;-74
2022/06/20 02:43:43;;;;;;;9.60;3.63;;;24.80;56.60;;;;;;5010756;28;20044;-74
2022/06/20 02:46:31;;;;;;;7.68;3.40;;;24.80;56.60;;;;;;5007481;28;20044;-75
2022/06/20 02:49:19;;;;;;;6.95;3.05;;;24.80;56.60;;;;;;5011290;28;20037;-75
2022/06/20 02:52:06;;;;;;;5.28;2.67;;;24.80;56.60;;;;;;5010543;28;20040;-75
2022/06/20 02:54:52;;;;;;;7.28;2.90;;;24.80;57.00;;;;;;5012069;28;20044;-75
2022/06/20 02:57:44;;;;;;;6.70;2.95;;;24.80;56.50;;;;;;5005672;28;20065;-75
2022/06/20 03:00:37;;;;;;;6.75;2.80;;;24.80;56.50;;;;;;5010979;28;20133;-75
2022/06/20 03:03:36;;;;;;;6.70;2.90;;;24.80;56.30;;;;;;5002493;28;20068;-75
2022/06/20 03:06:32;;;;;;;8.80;2.97;;;24.80;56.40;;;;;;5005341;28;20493;-75
2022/06/20 03:09:23;;;;;;;7.15;2.85;;;24.80;56.40;;;;;;5004052;28;20072;-75
2022/06/20 03:12:08;;;;;;;7.90;3.00;;;24.80;56.50;;;;;;5009960;28;20041;-75
2022/06/20 03:14:58;;;;;;;5.95;2.60;;;24.80;56.30;;;;;;5011508;28;20096;-75
2022/06/20 03:17:45;;;;;;;;;;;24.80;56.30;;;;;;5010269;28;20068;-75
2022/06/20 03:20:29;;;;;;;6.75;3.00;;;24.80;56.10;;;;;;5009850;28;19916;-75
2022/06/20 03:23:27;;;;;;;8.13;3.13;;;24.80;56.90;;;;;;5012427;28;20044;-75
2022/06/20 03:26:25;;;;;;;7.63;3.08;;;24.80;56.30;;;;;;5010493;28;20410;-75
2022/06/20 03:29:13;;;;;;;6.55;2.40;;;24.80;56.30;;;;;;5011021;28;20033;-75
2022/06/20 03:31:57;;;;;;;8.95;2.90;;;24.80;56.20;;;;;;5009163;28;20516;-75
2022/06/20 03:34:42;;;;;;;6.65;2.90;;;24.80;56.20;;;;;;5011316;28;20501;-74
2022/06/20 03:37:26;;;;;;;6.45;2.63;;;24.80;56.30;;;;;;5010461;28;20040;-74
2022/06/20 03:40:12;;;;;;;6.88;2.42;;;24.80;56.00;;;;;;5010402;28;20061;-74
2022/06/20 03:42:58;;;;;;;4.75;2.15;;;24.80;55.90;;;;;;5011169;28;20052;-74
2022/06/20 03:45:55;;;;;;;6.20;2.25;;;24.80;55.90;;;;;;5006600;28;20739;-74
2022/06/20 03:49:00;;;;;;;6.05;2.63;;;24.80;56.00;;;;;;4997298;28;20040;-75
2022/06/20 03:51:52;;;;;;;6.75;2.50;;;24.80;56.10;;;;;;5006040;28;20057;-74
2022/06/20 03:54:45;;;;;;;6.47;2.70;;;24.80;55.80;;;;;;5004148;28;20149;-74
2022/06/20 03:57:34;;;;;;;5.22;2.20;;;24.80;55.70;;;;;;5011306;28;20049;-73
2022/06/20 04:00:25;;;;;;;6.28;2.70;;;24.80;56.00;;;;;;5010793;28;20061;-74
2022/06/20 04:03:38;;;;;;;5.57;2.08;;;24.80;55.80;;;;;;5011015;28;20037;-73
2022/06/20 04:06:29;;;;;;;5.60;2.28;;;24.70;55.70;;;;;;4994479;28;20097;-74
2022/06/20 04:12:59;;;;;;;9.75;2.35;;;24.70;55.80;;;;;;4948063;28;20527;-73
2022/06/20 04:15:50;;;;;;;6.30;2.05;;;24.70;55.60;;;;;;5006669;28;20072;-74
2022/06/20 04:18:43;;;;;;;5.50;2.47;;;24.80;55.40;;;;;;5004651;28;20100;-74
2022/06/20 04:21:52;;;;;;;5.90;2.25;;;24.80;55.50;;;;;;5010620;28;20064;-74
2022/06/20 04:24:42;;;;;;;6.22;2.22;;;24.80;55.40;;;;;;5006915;28;20100;-73
2022/06/20 04:27:33;;;;;;;9.80;2.20;;;24.80;55.30;;;;;;5009959;28;20044;-74
2022/06/20 04:30:34;;;;;;;6.57;2.50;;;24.80;55.00;;;;;;4992144;28;20566;-73
2022/06/20 04:33:49;;;;;;;8.40;2.55;;;24.70;55.00;;;;;;5004088;28;20045;-73
2022/06/20 04:36:50;;;;;;;5.18;2.38;;;24.70;55.60;;;;;;5009888;28;20131;-73
2022/06/20 04:40:02;;;;;;;6.28;2.40;;;24.80;55.20;;;;;;5005132;28;20080;-73
2022/06/20 04:42:49;;;;;;;5.88;2.45;;;24.80;55.30;;;;;;5011551;28;20044;-73
2022/06/20 04:45:44;;;;;;;5.97;2.53;;;24.70;55.20;;;;;;5009733;28;20434;-73
2022/06/20 04:48:29;;;;;;;6.25;2.38;;;24.70;55.40;;;;;;5004550;28;20091;-73
2022/06/20 04:51:19;;;;;;;6.35;2.33;;;24.70;55.30;;;;;;5010006;28;20037;-73
2022/06/20 04:54:08;;;;;;;6.53;2.15;;;24.70;55.20;;;;;;5010156;28;20037;-73
2022/06/20 04:56:54;;;;;;;5.68;2.72;;;24.70;54.80;;;;;;5009854;28;20088;-73
2022/06/20 04:59:40;;;;;;;5.35;2.08;;;24.70;55.20;;;;;;5010698;28;20049;-73
2022/06/20 05:02:25;;;;;;;5.72;2.20;;;24.70;55.40;;;;;;5004600;28;20049;-74
2022/06/20 05:05:15;;;;;;;4.32;2.00;;;24.70;55.10;;;;;;5009149;28;20064;-74
2022/06/20 05:08:02;;;;;;;6.78;2.10;;;24.70;55.10;;;;;;5010792;28;20080;-74
2022/06/20 05:10:55;;;;;;;10.98;2.50;;;24.70;55.30;;;;;;5014581;28;20085;-74
2022/06/20 05:14:09;;;;;;;5.50;2.40;;;24.70;55.20;;;;;;5014156;28;20029;-74
2022/06/20 05:16:54;;;;;;;5.53;2.13;;;24.70;55.30;;;;;;5011560;28;20149;-74
2022/06/20 05:19:44;;;;;;;7.80;2.30;;;24.70;55.40;;;;;;5012423;28;20061;-74
2022/06/20 05:22:38;;;;;;;4.13;2.10;;;24.70;55.10;;;;;;5014339;28;20551;-74
2022/06/20 05:25:25;;;;;;;6.47;2.17;;;24.70;55.30;;;;;;5014642;28;20088;-74
2022/06/20 05:28:18;;;;;;;6.85;2.40;;;24.70;55.30;;;;;;5024663;28;20044;-74
2022/06/20 05:31:03;;;;;;;7.97;2.33;;;24.60;55.20;;;;;;5013382;28;20501;-74
2022/06/20 05:34:11;;;;;;;4.63;1.92;;;24.70;55.20;;;;;;5013215;28;20057;-74
2022/06/20 05:36:43;;;;;;;;;;;24.70;55.40;;;;;;5013364;28;20116;-74
2022/06/20 05:39:32;;;;;;;5.53;1.90;;;24.60;55.50;;;;;;5020661;28;20263;-74
2022/06/20 05:41:59;;;;;;;6.55;2.00;;;24.60;55.40;;;;;;5014045;28;20115;-74
2022/06/20 05:44:25;;;;;;;5.75;1.98;;;24.60;55.50;;;;;;4995753;28;20033;-74
2022/06/20 05:47:00;;;;;;;6.47;2.15;;;24.60;55.60;;;;;;5013978;28;20034;-74
2022/06/20 05:49:39;;;;;;;6.10;2.05;;;24.60;55.60;;;;;;5010020;28;20387;-74
2022/06/20 05:52:07;;;;;;;5.90;2.28;;;24.60;55.60;;;;;;5012795;28;20026;-74
2022/06/20 05:54:39;;;;;;;4.38;2.22;;;24.60;55.70;;;;;;5008274;28;20034;-74
2022/06/20 05:57:11;;;;;;;4.70;2.28;;;24.60;55.80;;;;;;5011598;28;20434;-74
2022/06/20 05:59:48;;;;;;;5.82;2.45;;;24.60;55.70;;;;;;5011727;28;20041;-74
2022/06/20 06:02:28;;;;;;;4.70;2.05;;;24.60;55.70;;;;;;5012070;28;20117;-74
2022/06/20 06:05:25;;;;;;;6.03;2.28;;;24.60;55.80;;;;;;5011394;28;20037;-73
2022/06/20 06:07:59;;;;;;;6.28;1.90;;;24.60;55.80;;;;;;5010610;28;20030;-74
2022/06/20 06:10:35;;;;;;;5.60;2.30;;;24.60;55.80;;;;;;5013800;28;20022;-74
2022/06/20 06:13:23;;;;;;;6.45;1.95;;;24.60;55.90;;;;;;5011628;28;20033;-74
2022/06/20 06:19:18;;;;;;;6.93;2.40;;;24.60;56.00;;;;;;5009331;28;20061;-74
2022/06/20 06:21:48;;;;;;;7.18;2.80;;;24.60;56.00;;;;;;5011510;28;20018;-74
2022/06/20 06:24:18;;;;;;;6.55;2.45;;;24.60;56.00;;;;;;5010766;28;20538;-74
2022/06/20 06:26:46;;;;;;;6.07;2.60;;;24.60;56.00;;;;;;5012907;28;20026;-74
2022/06/20 06:29:32;;;;;;;8.52;2.97;;;24.60;55.90;;;;;;5012337;28;20022;-74
2022/06/20 06:32:04;;;;;;;6.93;2.53;;;24.60;55.90;;;;;;5011779;28;20037;-74
2022/06/20 06:34:49;;;;;;;6.18;2.50;;;24.60;56.00;;;;;;5013118;28;20029;-77
2022/06/20 06:37:23;;;;;;;14.20;3.40;;;24.60;56.20;;;;;;5012832;28;20029;-79
2022/06/20 06:39:54;;;;;;;11.40;3.25;;;24.60;56.50;;;;;;5013065;28;20470;-77
2022/06/20 06:42:20;;;;;;;10.43;3.38;;;24.50;55.70;;;;;;5013181;28;20040;-79
2022/06/20 06:44:50;;;;;;;5.38;2.97;;;24.30;55.70;;;;;;5011645;28;20042;-77
2022/06/20 06:47:22;;;;;;;12.07;5.90;;;24.30;56.10;;;;;;5011520;28;20029;-77
2022/06/20 06:49:51;;;;;;;9.50;3.88;;;24.20;55.80;;;;;;5012887;28;20714;-78
2022/06/20 06:52:42;;;;;;;9.60;4.75;;;24.10;55.30;;;;;;5013018;28;20060;-78
2022/06/20 06:55:17;;;;;;;10.48;4.55;;;24.10;55.80;;;;;;5011735;28;20029;-77
2022/06/20 06:57:49;;;;;;;7.57;3.45;;;24.10;55.70;;;;;;5012120;28;20037;-77
2022/06/20 07:00:20;;;;;;;8.80;3.60;;;24.00;55.00;;;;;;5011922;28;20056;-77
2022/06/20 07:02:56;;;;;;;9.52;3.78;;;24.00;55.30;;;;;;5011029;28;20495;-77
2022/06/20 07:05:36;;;;;;;7.95;3.08;;;24.00;55.30;;;;;;5014706;23;20054;-73
2022/06/20 07:08:19;;;;;;;9.57;3.92;;;23.90;54.70;;;;;;4993396;28;20034;-73
2022/06/20 07:11:12;;;;;;;6.38;2.90;;;23.90;54.90;;;;;;5011359;28;20068;-73
2022/06/20 07:13:50;;;;;;;6.68;2.95;;;24.00;55.10;;;;;;5012719;28;20479;-73
2022/06/20 07:16:39;;;;;;;7.70;3.40;;;24.00;55.30;;;;;;5011517;28;20037;-73
2022/06/20 07:19:08;;;;;;;9.00;2.92;;;23.90;55.20;;;;;;5011483;28;20033;-73
2022/06/20 07:21:36;;;;;;;5.82;2.67;;;24.00;55.30;;;;;;5012334;28;20041;-74
2022/06/20 07:24:11;;;;;;;7.65;2.85;;;23.90;55.20;;;;;;5012417;28;20025;-73
2022/06/20 07:26:56;;;;;;;6.28;3.28;;;23.90;55.10;;;;;;5017203;28;20080;-73
2022/06/20 07:29:26;;;;;;;12.38;6.28;;;23.80;55.00;;;;;;4984443;28;20474;-73
2022/06/20 07:31:58;;;;;;;7.90;4.13;;;23.90;55.20;;;;;;5009541;28;20022;-73
2022/06/20 07:34:41;;;;;;;10.02;3.90;;;23.80;55.20;;;;;;5024863;28;20032;-74
2022/06/20 07:37:15;;;;;;;7.60;3.53;;;23.80;55.10;;;;;;5020173;28;20064;-73
2022/06/20 07:39:54;;;;;;;10.25;4.00;;;23.80;55.40;;;;;;5022133;28;20104;-73
2022/06/20 07:42:27;;;;;;;7.43;3.92;;;23.80;55.50;;;;;;5022708;28;20090;-73
2022/06/20 07:45:15;;;;;;;5.53;3.03;;;23.80;55.30;;;;;;5011446;28;20033;-73
2022/06/20 07:47:54;;;;;;;5.93;3.00;;;23.80;55.50;;;;;;5014189;28;20054;-73
2022/06/20 07:51:05;;;;;;;7.22;3.35;;;23.80;55.50;;;;;;5015081;28;20391;-73
2022/06/20 07:53:38;;;;;;;6.05;3.17;;;23.80;55.60;;;;;;5032103;28;20095;-73
2022/06/20 07:56:35;;;;;;;6.65;2.95;;;23.80;55.90;;;;;;5022323;28;20025;-73
2022/06/20 07:59:08;;;;;;;7.93;3.25;;;23.80;56.20;;;;;;5011553;28;20041;-73
2022/06/20 08:01:47;;;;;;;7.93;3.65;;;23.80;56.50;;;;;;5016164;28;20068;-73
2022/06/20 08:04:18;;;;;;;6.40;2.90;;;23.80;56.70;;;;;;5022132;28;20036;-73
2022/06/20 08:06:54;;;;;;;7.95;3.47;;;23.80;56.60;;;;;;5020267;28;20048;-73
2022/06/20 08:09:27;;;;;;;15.75;3.25;;;23.80;56.70;;;;;;5016840;28;20051;-73
2022/06/20 08:12:20;;;;;;;416.02;34.70;;;23.80;56.60;;;;;;5015703;28;20023;-73
2022/06/20 08:14:50;;;;;;;106.28;8.68;;;23.80;56.60;;;;;;5009812;28;20064;-73
2022/06/20 08:17:16;;;;;;;53.42;5.18;;;23.80;57.00;;;;;;5018444;28;20249;-75
2022/06/20 08:19:43;;;;;;;40.83;5.07;;;23.80;56.50;;;;;;5025232;28;20170;-81
2022/06/20 08:22:09;;;;;;;72.32;6.55;;;23.80;56.70;;;;;;5012124;28;20096;-79
2022/06/20 08:24:44;;;;;;;21.25;4.05;;;23.80;57.20;;;;;;5009822;28;20030;-80
2022/06/20 08:27:17;;;;;;;27.60;5.05;;;23.90;56.70;;;;;;5010626;28;20030;-83
2022/06/20 08:29:52;;;;;;;19.60;3.65;;;23.80;57.10;;;;;;5019754;28;20030;-81
2022/06/20 08:32:56;;;;;;;8.27;3.47;;;23.70;56.50;;;;;;5015924;28;20102;-82
2022/06/20 08:35:36;;;;;;;18.08;4.45;;;23.70;56.80;;;;;;5029505;28;20406;-81
2022/06/20 08:38:12;;;;;;;14.13;4.60;;;23.70;56.80;;;;;;5009223;28;20030;-82
2022/06/20 08:40:52;;;;;;;11.18;4.72;;;23.70;56.90;;;;;;5011637;28;20057;-79
2022/06/20 08:43:33;;;;;;;15.65;6.93;;;23.70;57.20;;;;;;5014597;28;20049;-76
2022/06/20 08:46:20;;;;;;;23.00;8.52;;;23.70;57.30;;;;;;5022520;28;20029;-71
2022/06/20 08:49:23;;;;;;;24.27;11.48;;;23.70;57.90;;;;;;5031255;28;20501;-68
2022/06/20 08:52:07;;;;;;;19.20;11.70;;;23.70;57.60;;;;;;5012165;28;20025;-68
2022/06/20 08:55:04;;;;;;;19.20;8.95;;;23.60;57.80;;;;;;5008039;28;20083;-68
2022/06/20 08:57:59;;;;;;;12.40;6.20;;;23.70;58.20;;;;;;5017551;28;20044;-68
2022/06/20 09:00:34;;;;;;;12.20;5.47;;;23.60;59.10;;;;;;5016220;28;20033;-69
2022/06/20 09:03:00;;;;;;;11.68;4.57;;;23.50;58.00;;;;;;5014777;28;20030;-69
2022/06/20 09:05:50;;;;;;;8.25;3.88;;;23.60;58.00;;;;;;5014499;28;20045;-69
2022/06/20 09:08:40;;;;;;;10.88;3.80;;;23.60;57.80;;;;;;5014055;28;20555;-69
2022/06/20 09:11:37;;;;;;;8.68;3.35;;;23.50;57.50;;;;;;5013568;28;20453;-69
2022/06/20 09:14:41;;;;;;;8.65;3.72;;;23.50;57.50;;;;;;5013487;28;20518;-69
2022/06/20 09:17:52;;;;;;;10.05;3.22;;;23.50;57.50;;;;;;5013461;28;20041;-70
2022/06/20 09:20:52;;;;;;;14.00;4.88;;;23.50;57.70;;;;;;5014531;28;20121;-70
2022/06/20 09:23:37;;;;;;;14.90;7.45;;;23.40;57.60;;;;;;5014655;28;20059;-69
2022/06/20 09:26:18;;;;;;;20.52;10.48;;;23.40;57.60;;;;;;5011458;28;20387;-69
2022/06/20 09:29:02;;;;;;;18.52;9.77;;;23.40;57.70;;;;;;5013457;28;20112;-69
2022/06/20 09:31:50;;;;;;;17.70;8.55;;;23.40;57.50;;;;;;5014360;28;20406;-70
2022/06/20 09:34:31;;;;;;;14.85;7.40;;;23.40;57.70;;;;;;5014157;28;20037;-69
2022/06/20 09:37:21;;;;;;;13.40;6.00;;;23.40;57.70;;;;;;5014091;28;20076;-69
2022/06/20 09:40:18;;;;;;;9.63;5.38;;;23.40;57.80;;;;;;5014128;28;20432;-69
2022/06/20 09:43:22;;;;;;;12.00;5.55;;;23.30;57.60;;;;;;5014222;28;20037;-70
2022/06/20 09:45:56;;;;;;;10.57;4.10;;;23.30;57.90;;;;;;5012932;28;20431;-69
2022/06/20 09:48:54;;;;;;;8.23;3.70;;;23.30;57.80;;;;;;5013374;28;20065;-69
2022/06/20 09:51:43;;;;;;;7.65;3.70;;;23.30;57.80;;;;;;5012256;28;20048;-69
2022/06/20 09:54:28;;;;;;;7.30;3.17;;;23.30;57.80;;;;;;5013233;28;20414;-69
2022/06/20 09:57:30;;;;;;;9.38;3.30;;;23.30;58.60;;;;;;4996385;28;20140;-69
2022/06/20 10:00:14;;;;;;;7.30;2.75;;;23.30;58.00;;;;;;5013524;28;20034;-70
2022/06/20 10:03:04;;;;;;;8.85;3.40;;;23.30;58.00;;;;;;5013884;28;20026;-70
2022/06/20 10:05:49;;;;;;;7.10;2.90;;;23.30;58.00;;;;;;5013639;28;20037;-70
2022/06/20 10:08:36;;;;;;;6.30;3.35;;;23.30;57.80;;;;;;5012255;28;20029;-69
2022/06/20 10:11:08;;;;;;;5.03;2.88;;;23.30;57.90;;;;;;5012051;28;20105;-69
2022/06/20 10:13:54;;;;;;;6.35;3.10;;;23.30;57.70;;;;;;5012360;28;20117;-69
2022/06/20 10:16:54;;;;;;;8.00;3.22;;;23.30;57.70;;;;;;5013585;28;20041;-69
2022/06/20 10:19:44;;;;;;;7.07;3.58;;;23.30;57.70;;;;;;5012590;28;20029;-69
2022/06/20 10:22:16;;;;;;;13.00;6.47;;;23.30;57.90;;;;;;5013299;28;20044;-68
2022/06/20 10:24:54;;;;;;;16.02;6.63;;;23.30;57.80;;;;;;5012209;28;20054;-72
2022/06/20 10:27:28;;;;;;;12.73;6.70;;;23.40;57.70;;;;;;5010939;28;20029;-73
2022/06/20 10:30:09;;;;;;;16.50;5.10;;;23.50;58.00;;;;;;5008510;28;20034;-73
2022/06/20 10:33:15;;;;;;;10.85;5.68;;;23.60;57.70;;;;;;5023406;28;20076;-72
2022/06/20 10:35:51;;;;;;;10.32;5.60;;;23.70;57.90;;;;;;5012042;28;20446;-73
2022/06/20 10:38:31;;;;;;;17.92;7.88;;;23.80;57.60;;;;;;5011243;28;20037;-72
2022/06/20 10:41:09;;;;;;;32.13;22.13;;;23.90;58.20;;;;;;5013099;28;20026;-71
2022/06/20 10:44:11;;;;;;;40.08;28.25;;;23.80;58.20;;;;;;5011897;28;20128;-73
2022/06/20 10:46:55;;;;;;;38.25;25.75;;;23.70;58.00;;;;;;5012895;28;20077;-74
2022/06/20 10:49:30;;;;;;;32.78;23.25;;;23.70;58.50;;;;;;5011018;28;20018;-74
2022/06/20 10:52:29;;;;;;;37.70;23.58;;;23.70;58.30;;;;;;5011327;28;20026;-74
2022/06/20 10:55:17;;;;;;;37.78;21.48;;;23.80;59.00;;;;;;5012830;28;20065;-74
2022/06/20 10:58:19;;;;;;;31.90;20.65;;;23.80;59.60;;;;;;4994593;28;20406;-73
2022/06/20 11:00:50;;;;;;;29.15;19.88;;;23.90;57.90;;;;;;5010470;28;20025;-73
2022/06/20 11:03:23;;;;;;;30.45;20.05;;;23.90;58.80;;;;;;5011494;28;20387;-73
2022/06/20 11:05:57;;;;;;;28.83;19.77;;;23.90;57.80;;;;;;5009968;28;20041;-72
2022/06/20 11:08:43;;;;;;;28.35;18.60;;;24.00;57.80;;;;;;5010570;28;20046;-74
2022/06/20 11:11:21;;;;;;;26.88;18.08;;;24.00;57.90;;;;;;5012556;28;20110;-74
2022/06/20 11:14:10;;;;;;;27.70;18.95;;;24.00;58.00;;;;;;5012612;28;20152;-72
2022/06/20 11:17:17;;;;;;;26.20;17.88;;;24.00;58.20;;;;;;5011646;28;20148;-74
2022/06/20 11:20:20;;;;;;;27.92;18.02;;;24.00;58.50;;;;;;5012309;28;20026;-74
2022/06/20 11:23:00;;;;;;;28.92;18.58;;;24.00;58.70;;;;;;5012315;28;20038;-74
2022/06/20 11:25:48;;;;;;;26.92;17.58;;;24.10;58.60;;;;;;5012353;28;20123;-72
2022/06/20 11:28:45;;;;;;;24.45;16.70;;;24.10;58.60;;;;;;5011027;28;20037;-74
2022/06/20 11:31:49;;;;;;;23.92;16.85;;;24.00;58.80;;;;;;5009181;28;20112;-72
2022/06/20 11:34:42;;;;;;;28.25;16.35;;;24.10;58.90;;;;;;5006945;28;20038;-73
2022/06/20 11:37:38;;;;;;;21.75;14.98;;;24.10;58.60;;;;;;4992343;28;20026;-74
2022/06/20 11:40:42;;;;;;;25.52;16.05;;;24.10;59.00;;;;;;4994693;28;20041;-74
2022/06/20 11:43:35;;;;;;;27.08;17.05;;;24.10;58.90;;;;;;5012090;28;20129;-74
2022/06/20 11:46:24;;;;;;;25.58;16.77;;;24.10;59.10;;;;;;5012200;28;20406;-71
2022/06/20 11:49:07;;;;;;;25.58;16.10;;;24.10;59.00;;;;;;5000670;28;20054;-73
2022/06/20 11:51:47;;;;;;;23.70;16.20;;;24.10;58.90;;;;;;5010657;28;20042;-72
2022/06/20 11:54:45;;;;;;;24.77;15.57;;;24.10;58.70;;;;;;5011990;28;20033;-73
2022/06/20 11:57:20;;;;;;;21.23;14.68;;;24.10;58.80;;;;;;5010435;28;20030;-73
2022/06/20 11:59:57;;;;;;;23.80;15.63;;;24.10;59.10;;;;;;5010586;28;20022;-72
2022/06/20 12:02:34;;;;;;;23.52;14.70;;;24.10;59.10;;;;;;5011858;28;20113;-72
2022/06/20 12:05:06;;;;;;;22.60;15.15;;;24.10;58.90;;;;;;5009590;28;20069;-72
2022/06/20 12:07:40;;;;;;;22.92;15.15;;;24.20;59.00;;;;;;5010867;28;20065;-72
2022/06/20 12:10:14;;;;;;;23.65;14.55;;;24.20;59.00;;;;;;5009032;28;20499;-72
2022/06/20 12:12:53;;;;;;;27.73;19.45;;;24.20;58.90;;;;;;5010435;28;20038;-69
2022/06/20 12:15:49;;;;;;;39.75;24.35;;;24.10;58.80;;;;;;5011780;28;20049;-69
2022/06/20 12:18:18;;;;;;;33.42;20.98;;;24.10;58.30;;;;;;4997003;28;20072;-69
2022/06/20 12:23:55;;;;;;;14.00;7.93;;;23.80;56.40;;;;;;5012397;28;20033;-70
2022/06/20 12:26:31;;;;;;;18.45;9.15;;;23.70;57.30;;;;;;5013352;28;20483;-69
2022/06/20 12:28:59;;;;;;;10.52;4.47;;;23.60;56.90;;;;;;5012120;28;20709;-70
2022/06/20 12:31:34;;;;;;;7.65;3.38;;;23.60;56.30;;;;;;5013803;28;20116;-70
2022/06/20 12:34:16;;;;;;;8.85;3.97;;;23.60;56.30;;;;;;5014525;28;20029;-71
2022/06/20 12:36:44;;;;;;;5.13;2.90;;;23.50;56.60;;;;;;5014156;28;20475;-69
2022/06/20 12:39:19;;;;;;;8.70;2.78;;;23.50;56.60;;;;;;5013016;28;20037;-72
2022/06/20 12:41:51;;;;;;;8.60;3.03;;;23.40;56.50;;;;;;5012679;28;20121;-73
2022/06/20 12:44:44;;;;;;;5.90;2.47;;;23.50;56.70;;;;;;5010757;28;20112;-73
2022/06/20 12:47:28;;;;;;;7.45;3.42;;;23.70;56.70;;;;;;5014351;28;20029;-73
2022/06/20 12:50:17;;;;;;;6.45;2.33;;;23.70;56.70;;;;;;5015145;28;20033;-73
2022/06/20 12:52:52;;;;;;;10.10;2.70;;;23.80;56.60;;;;;;5013915;28;20117;-72
2022/06/20 12:55:18;;;;;;;34.58;6.47;;;23.90;56.80;;;;;;5015232;28;20028;-73
2022/06/20 12:58:23;;;;;;;33.22;4.05;;;23.90;56.60;;;;;;5014483;28;20113;-73
2022/06/20 13:00:57;;;;;;;24.88;4.22;;;23.90;57.20;;;;;;5011145;28;20127;-74
2022/06/20 13:03:49;;;;;;;29.50;3.83;;;23.90;56.50;;;;;;5014858;28;20029;-74
2022/06/20 13:06:44;;;;;;;16.15;3.35;;;23.90;56.50;;;;;;5014559;28;20441;-74
2022/06/20 13:09:31;;;;;;;30.38;4.32;;;23.90;56.50;;;;;;5013793;28;20061;-74
2022/06/20 13:12:04;;;;;;;27.67;4.05;;;23.90;56.50;;;;;;5014863;28;20050;-74
2022/06/20 13:14:38;;;;;;;29.20;4.55;;;24.00;56.60;;;;;;5014685;28;20534;-74
2022/06/20 13:17:04;;;;;;;40.28;5.45;;;24.00;56.60;;;;;;5013518;28;20033;-74
2022/06/20 13:19:50;;;;;;;33.33;4.57;;;23.90;56.60;;;;;;5013874;28;20540;-75
2022/06/20 13:22:33;;;;;;;22.23;4.68;;;24.00;56.70;;;;;;5013511;28;20135;-74
2022/06/20 13:25:38;;;;;;;30.63;4.72;;;23.90;56.70;;;;;;5014749;28;20129;-74
2022/06/20 13:28:19;;;;;;;28.73;4.38;;;24.00;56.80;;;;;;5013275;28;20034;-74
2022/06/20 13:30:57;;;;;;;28.90;5.38;;;23.90;56.80;;;;;;4996923;28;20518;-74
2022/06/20 13:33:28;;;;;;;29.40;5.10;;;23.90;56.80;;;;;;5014371;28;20057;-74
2022/06/20 13:36:29;;;;;;;26.33;4.97;;;23.90;56.80;;;;;;5014300;28;20033;-74
2022/06/20 13:39:09;;;;;;;28.15;4.80;;;23.90;56.90;;;;;;5002006;28;20092;-74
2022/06/20 13:41:50;;;;;;;20.27;4.05;;;23.90;56.90;;;;;;5014401;28;20033;-74
2022/06/20 13:44:30;;;;;;;28.92;4.28;;;23.90;56.90;;;;;;5014049;28;20506;-74
2022/06/20 13:47:16;;;;;;;23.17;4.90;;;23.90;57.00;;;;;;5014199;28;20515;-74
2022/06/20 13:50:10;;;;;;;28.42;5.35;;;23.90;57.00;;;;;;5014985;28;20030;-74
2022/06/20 13:53:07;;;;;;;22.00;4.70;;;23.90;57.00;;;;;;5016469;28;20033;-74
2022/06/20 13:55:45;;;;;;;20.48;4.35;;;23.90;57.40;;;;;;4999067;28;20044;-74
2022/06/20 13:58:27;;;;;;;35.40;5.60;;;23.90;57.10;;;;;;4996184;28;20424;-74
2022/06/20 14:00:57;;;;;;;23.15;4.43;;;23.90;57.20;;;;;;4996726;28;20034;-75
2022/06/20 14:03:28;;;;;;;25.63;5.00;;;24.00;57.20;;;;;;5012845;28;20065;-74
2022/06/20 14:06:14;;;;;;;24.65;5.20;;;24.00;57.50;;;;;;5013778;28;20074;-74
2022/06/20 14:08:55;;;;;;;18.73;3.95;;;24.00;57.60;;;;;;5013135;28;20026;-74
2022/06/20 14:11:41;;;;;;;20.10;4.50;;;24.00;57.30;;;;;;5013761;28;20414;-72
2022/06/20 14:14:28;;;;;;;22.15;4.68;;;24.00;57.30;;;;;;5013575;28;20478;-73
2022/06/20 14:16:58;;;;;;;37.20;5.13;;;24.00;57.40;;;;;;5013545;28;20042;-73
2022/06/20 14:19:30;;;;;;;28.77;4.80;;;24.10;58.00;;;;;;5012478;28;20030;-73
2022/06/20 14:21:59;;;;;;;22.83;4.85;;;24.10;57.70;;;;;;5013312;28;20075;-72
2022/06/20 14:24:38;;;;;;;20.98;4.35;;;24.10;57.80;;;;;;5013435;28;20076;-72